createdAt,value
2023-03-07T00:01:09.291Z,1.00
2023-03-07T00:03:36.952Z,1.00
2023-03-07T00:06:10.003Z,1.00
2023-03-07T00:08:36.994Z,1.00
2023-03-07T00:11:06.953Z,1.00
2023-03-07T00:13:35.180Z,1.00
2023-03-07T00:16:07.983Z,1.00
2023-03-07T00:18:35.547Z,1.00
2023-03-07T00:21:07.895Z,1.00
2023-03-07T00:23:36.236Z,1.00
2023-03-07T00:26:05.813Z,1.00
2023-03-07T00:28:32.926Z,1.00
2023-03-07T00:31:04.908Z,1.00
2023-03-07T00:33:32.169Z,1.00
2023-03-07T00:36:01.676Z,1.00
2023-03-07T00:38:30.471Z,1.00
2023-03-07T00:41:05.061Z,1.00
2023-03-07T00:43:32.432Z,1.00
2023-03-07T00:45:59.953Z,1.00
2023-03-07T00:48:27.592Z,1.80
2023-03-07T00:50:54.910Z,10.80
2023-03-07T00:53:22.284Z,16.80
2023-03-07T00:55:59.560Z,16.90
2023-03-07T00:58:28.398Z,20.60
2023-03-07T01:00:56.163Z,27.40
2023-03-07T01:03:24.169Z,37.80
2023-03-07T01:05:51.846Z,45.90
2023-03-07T01:08:19.354Z,53.20
2023-03-07T01:10:48.713Z,67.60
2023-03-07T01:17:39.724Z,72.50
2023-03-07T01:20:07.217Z,72.70
2023-03-07T01:22:34.004Z,85.30
2023-03-07T01:25:00.837Z,90.00
2023-03-07T01:27:27.625Z,93.50
2023-03-07T01:29:54.465Z,98.10
2023-03-07T01:32:21.260Z,99.90
2023-03-07T01:34:48.071Z,99.90
2023-03-07T01:37:14.912Z,99.90
2023-03-07T01:39:42.983Z,99.90
2023-03-07T01:42:10.661Z,99.90
2023-03-07T01:45:16.148Z,99.90
2023-03-07T01:47:45.820Z,99.90
2023-03-07T01:50:17.236Z,99.90
2023-03-07T01:52:53.575Z,99.90
2023-03-07T01:55:36.893Z,99.90
2023-03-07T01:58:10.838Z,99.90
2023-03-07T02:00:39.546Z,99.90
2023-03-07T02:03:24.924Z,99.90
2023-03-07T02:05:58.567Z,99.90
2023-03-07T02:08:28.741Z,99.90
2023-03-07T02:10:55.540Z,99.90
2023-03-07T02:13:22.464Z,99.90
2023-03-07T02:15:51.107Z,99.90
2023-03-07T02:18:21.725Z,99.90
2023-03-07T02:21:12.393Z,99.90
2023-03-07T02:23:46.770Z,99.90
2023-03-07T02:26:28.676Z,99.90
2023-03-07T02:28:56.244Z,99.90
2023-03-07T02:31:24.039Z,99.90
2023-03-07T02:33:50.960Z,99.90
2023-03-07T02:36:22.296Z,99.90
2023-03-07T02:38:51.152Z,99.90
2023-03-07T02:41:23.926Z,99.90
2023-03-07T02:43:50.871Z,99.90
2023-03-07T02:46:18.043Z,99.90
2023-03-07T02:48:44.892Z,99.90
2023-03-07T02:51:12.088Z,99.90
2023-03-07T02:53:39.432Z,99.90
2023-03-07T02:56:07.401Z,99.90
2023-03-07T02:58:34.434Z,99.90
2023-03-07T03:01:01.453Z,99.90
2023-03-07T03:03:28.241Z,99.90
2023-03-07T03:05:55.065Z,99.90
2023-03-07T03:08:21.875Z,99.90
2023-03-07T03:10:57.582Z,99.90
2023-03-07T05:48:33.389Z,99.90
2023-03-07T06:03:04.817Z,92.80
2023-03-07T06:05:31.973Z,89.60
2023-03-07T06:07:58.762Z,84.10
2023-03-07T06:10:25.927Z,88.20
2023-03-07T06:12:54.130Z,74.10
2023-03-07T06:15:24.281Z,73.80
2023-03-07T06:17:52.673Z,80.40
2023-03-07T06:20:21.062Z,86.30
2023-03-07T06:22:48.459Z,90.30
2023-03-07T06:25:16.857Z,90.40
2023-03-07T06:27:43.707Z,95.10
2023-03-07T06:30:12.358Z,99.90
2023-03-07T06:32:39.321Z,99.90
2023-03-07T06:35:06.629Z,99.90
2023-03-07T06:37:33.490Z,99.90
2023-03-07T06:40:00.448Z,99.90
2023-03-07T06:42:27.359Z,99.90
2023-03-07T06:44:54.135Z,99.90
2023-03-07T06:47:22.657Z,99.90
2023-03-07T06:49:49.558Z,99.90
2023-03-07T06:52:16.366Z,99.90
2023-03-07T06:54:43.250Z,99.90
2023-03-07T06:57:10.074Z,99.90
2023-03-07T06:59:36.924Z,99.90
2023-03-07T07:02:04.602Z,99.90
2023-03-07T07:04:33.072Z,99.90
2023-03-07T07:07:00.032Z,99.90
2023-03-07T07:09:26.909Z,99.90
2023-03-07T07:11:53.736Z,99.90
2023-03-07T07:14:21.958Z,99.90
2023-03-07T07:16:49.077Z,99.90
2023-03-07T07:19:16.076Z,99.90
2023-03-07T07:21:43.010Z,99.90
2023-03-07T07:24:13.121Z,99.90
2023-03-07T07:26:40.020Z,99.90
2023-03-07T07:29:06.825Z,99.90
2023-03-07T07:31:33.724Z,99.90
2023-03-07T07:34:00.849Z,99.90
2023-03-07T07:36:28.371Z,99.90
2023-03-07T07:38:55.187Z,99.90
2023-03-07T07:41:21.966Z,99.90
2023-03-07T07:43:50.293Z,99.90
2023-03-07T07:46:17.244Z,97.30
2023-03-07T07:48:46.244Z,67.60
2023-03-07T07:51:13.079Z,45.40
2023-03-07T07:53:39.904Z,17.90
2023-03-07T07:56:07.272Z,1.00
2023-03-07T07:58:34.199Z,1.00
2023-03-07T08:01:01.018Z,1.00
2023-03-07T08:03:27.808Z,1.00
2023-03-07T08:05:54.640Z,1.00
2023-03-07T08:08:21.437Z,1.00
2023-03-07T08:10:49.187Z,1.00
2023-03-07T08:13:17.474Z,1.00
2023-03-07T08:15:44.363Z,1.00
2023-03-07T08:18:11.405Z,1.00
2023-03-07T08:20:39.610Z,1.00
2023-03-07T08:23:06.641Z,1.00
2023-03-07T08:25:33.781Z,1.00
2023-03-07T08:28:03.166Z,1.00
2023-03-07T08:30:32.253Z,1.00
2023-03-07T08:32:59.868Z,1.00
2023-03-07T08:35:28.325Z,1.00
2023-03-07T08:37:58.089Z,1.00
2023-03-07T08:40:26.169Z,1.00
2023-03-07T08:42:55.155Z,1.00
2023-03-07T08:45:25.527Z,1.00
2023-03-07T08:47:53.907Z,1.00
2023-03-07T08:50:25.984Z,1.00
2023-03-07T08:52:52.948Z,1.00
2023-03-07T08:55:20.387Z,1.00
2023-03-07T08:57:47.775Z,1.00
2023-03-07T09:00:15.656Z,1.00
2023-03-07T09:02:42.593Z,1.00
2023-03-07T09:05:09.842Z,1.00
2023-03-07T09:07:36.747Z,1.00
2023-03-07T09:10:05.847Z,1.00
2023-03-07T09:12:34.424Z,1.00
2023-03-07T09:15:01.301Z,1.00
2023-03-07T09:17:28.382Z,1.00
2023-03-07T09:19:56.521Z,1.00
2023-03-07T09:22:23.319Z,1.00
2023-03-07T09:24:50.093Z,1.00
2023-03-07T09:27:16.916Z,1.00
2023-03-07T09:29:43.758Z,1.00
2023-03-07T09:32:10.902Z,1.00
2023-03-07T09:34:37.678Z,1.00
2023-03-07T09:37:04.577Z,1.00
2023-03-07T09:39:32.264Z,1.00
2023-03-07T09:42:19.467Z,1.00
2023-03-07T09:45:01.847Z,1.00
2023-03-07T09:48:00.845Z,1.00
2023-03-07T09:50:32.728Z,1.00
2023-03-07T09:53:03.260Z,1.00
2023-03-07T09:55:31.938Z,1.00
2023-03-07T09:58:08.431Z,1.00
2023-03-07T10:00:42.717Z,1.00
2023-03-07T10:03:27.462Z,1.00
2023-03-07T10:05:59.212Z,1.00
2023-03-07T10:08:32.432Z,1.00
2023-03-07T10:11:05.786Z,1.00
2023-03-07T10:14:10.162Z,1.00
2023-03-07T10:16:47.966Z,1.00
2023-03-07T10:19:48.339Z,1.00
2023-03-07T10:22:30.245Z,1.00
2023-03-07T10:25:26.241Z,1.00
2023-03-07T10:28:00.310Z,1.00
2023-03-07T10:30:31.512Z,1.00
2023-03-07T10:33:01.393Z,1.00
2023-03-07T10:35:43.464Z,1.00
2023-03-07T10:38:28.528Z,1.00
2023-03-07T10:40:57.565Z,1.00
2023-03-07T10:43:28.441Z,1.00
2023-03-07T10:46:24.663Z,1.00
2023-03-07T10:49:16.950Z,1.00
2023-03-07T10:52:04.561Z,1.00
2023-03-07T10:54:34.025Z,1.00
2023-03-07T10:57:12.789Z,1.00
2023-03-07T10:59:43.638Z,1.00
2023-03-07T11:02:44.608Z,1.00
2023-03-07T11:05:31.277Z,1.00
2023-03-07T11:07:59.367Z,1.00
2023-03-07T11:10:34.698Z,1.00
2023-03-07T11:13:15.379Z,1.00
2023-03-07T11:15:42.326Z,1.00
2023-03-07T11:18:25.585Z,1.00
2023-03-07T11:20:52.921Z,1.00
2023-03-07T11:23:28.234Z,1.00
2023-03-07T11:25:57.363Z,1.00
2023-03-07T11:28:34.760Z,1.00
2023-03-07T11:31:24.472Z,1.00
2023-03-07T11:34:00.085Z,1.00
2023-03-07T11:36:36.005Z,1.00
2023-03-07T11:39:44.298Z,1.00
2023-03-07T11:42:24.954Z,1.00
2023-03-07T11:45:05.261Z,1.00
2023-03-07T11:47:33.222Z,1.00
2023-03-07T11:50:21.020Z,1.00
2023-03-07T11:53:12.610Z,1.00
2023-03-07T11:55:57.440Z,1.00
2023-03-07T11:58:41.705Z,1.00
2023-03-07T12:01:37.500Z,1.00
2023-03-07T12:04:25.895Z,1.00
2023-03-07T12:07:22.830Z,1.00
2023-03-07T12:10:09.884Z,1.00
2023-03-07T12:13:08.415Z,1.00
2023-03-07T12:15:46.068Z,1.00
2023-03-07T12:18:12.983Z,1.00
2023-03-07T12:20:39.739Z,1.00
2023-03-07T12:23:23.451Z,1.00
2023-03-07T12:25:54.423Z,1.00
2023-03-07T12:28:35.946Z,1.00
2023-03-07T12:31:12.012Z,1.00
2023-03-07T12:34:09.940Z,1.00
2023-03-07T12:36:39.557Z,1.00
2023-03-07T12:39:21.264Z,1.00
2023-03-07T12:42:15.390Z,1.00
2023-03-07T12:45:06.182Z,1.00
2023-03-07T12:47:39.967Z,1.00
2023-03-07T12:50:09.818Z,1.00
2023-03-07T12:52:52.480Z,1.00
2023-03-07T12:55:44.194Z,1.00
2023-03-07T12:58:44.331Z,1.00
2023-03-07T13:01:40.107Z,1.00
2023-03-07T13:04:29.036Z,1.00
2023-03-07T13:07:13.442Z,1.00
2023-03-07T13:09:43.081Z,1.00
2023-03-07T13:12:20.228Z,1.00
2023-03-07T13:14:49.074Z,1.00
2023-03-07T13:17:31.400Z,1.00
2023-03-07T13:20:02.159Z,1.00
2023-03-07T13:22:28.920Z,1.00
2023-03-07T13:25:26.598Z,1.00
2023-03-07T13:27:58.567Z,1.00
2023-03-07T13:30:30.584Z,1.00
2023-03-07T13:33:15.940Z,1.00
2023-03-07T13:35:52.823Z,1.00
2023-03-07T13:38:46.534Z,1.00
2023-03-07T13:41:33.995Z,1.00
2023-03-07T13:44:02.347Z,1.00
2023-03-07T13:46:46.297Z,1.00
2023-03-07T13:49:33.950Z,1.00
2023-03-07T13:52:37.839Z,1.00
2023-03-07T13:55:14.128Z,1.00
2023-03-07T13:57:43.146Z,1.00
2023-03-07T14:00:30.161Z,1.00
2023-03-07T14:02:57.487Z,1.00
2023-03-07T14:05:25.122Z,1.00
2023-03-07T14:07:53.336Z,1.00
2023-03-07T14:10:30.393Z,1.00
2023-03-07T14:13:22.198Z,1.00
2023-03-07T14:16:07.223Z,1.00
2023-03-07T14:19:07.867Z,1.00
2023-03-07T14:22:01.222Z,1.00
2023-03-07T14:24:33.953Z,1.00
2023-03-07T14:27:12.713Z,1.00
2023-03-07T14:29:49.661Z,1.00
2023-03-07T14:32:28.813Z,1.00
2023-03-07T14:34:56.704Z,1.00
2023-03-07T14:37:29.223Z,1.00
2023-03-07T14:39:59.102Z,1.00
2023-03-07T14:42:35.130Z,1.00
2023-03-07T14:45:13.902Z,1.00
2023-03-07T14:48:09.242Z,1.00
2023-03-07T14:50:39.944Z,1.00
2023-03-07T14:53:26.760Z,1.00
2023-03-07T14:55:55.265Z,1.00
2023-03-07T14:58:25.417Z,1.00
2023-03-07T15:01:17.115Z,1.00
2023-03-07T15:03:52.367Z,1.00
2023-03-07T15:06:23.161Z,1.00
2023-03-07T15:08:52.206Z,1.00
2023-03-07T15:11:42.857Z,1.00
2023-03-07T15:14:24.130Z,1.00
2023-03-07T15:16:54.560Z,1.00
2023-03-07T15:19:30.257Z,1.00
2023-03-07T15:22:02.686Z,1.00
2023-03-07T15:24:32.973Z,1.00
2023-03-07T15:27:01.198Z,1.00
2023-03-07T15:29:33.064Z,1.00
2023-03-07T15:32:02.841Z,1.00
2023-03-07T15:34:40.097Z,1.00
2023-03-07T15:37:28.782Z,1.00
2023-03-07T15:40:24.609Z,1.00
2023-03-07T15:42:59.287Z,1.00
2023-03-07T15:45:36.524Z,1.00
2023-03-07T15:48:10.542Z,1.00
2023-03-07T15:50:37.821Z,1.00
2023-03-07T15:53:10.160Z,1.00
2023-03-07T15:55:38.511Z,1.00
2023-03-07T15:58:13.168Z,1.00
2023-03-07T16:00:41.830Z,1.00
2023-03-07T16:03:30.380Z,1.00
2023-03-07T16:06:00.073Z,1.00
2023-03-07T16:08:27.668Z,1.00
2023-03-07T16:11:04.979Z,1.00
2023-03-07T16:13:36.333Z,1.00
2023-03-07T16:16:07.179Z,1.00
2023-03-07T16:18:34.746Z,1.00
2023-03-07T16:21:01.914Z,1.00
2023-03-07T16:23:31.213Z,1.00
2023-03-07T16:26:01.491Z,1.00
2023-03-07T16:28:28.385Z,1.00
2023-03-07T16:30:55.375Z,1.00
2023-03-07T16:33:22.181Z,1.00
2023-03-07T16:35:49.008Z,1.00
2023-03-07T16:38:15.863Z,1.00
2023-03-07T16:40:44.944Z,1.00
2023-03-07T16:43:30.334Z,1.00
2023-03-07T16:45:57.739Z,1.00
2023-03-07T16:48:24.811Z,1.00
2023-03-07T16:50:51.647Z,1.00
2023-03-07T16:53:18.576Z,1.00
2023-03-07T16:55:46.220Z,1.00
2023-03-07T16:58:31.742Z,1.00
2023-03-07T17:00:59.378Z,1.00
2023-03-07T17:03:27.020Z,1.00
2023-03-07T17:05:53.809Z,1.00
2023-03-07T17:08:20.645Z,1.00
2023-03-07T17:10:47.718Z,1.00
2023-03-07T17:13:18.104Z,1.00
2023-03-07T17:15:46.122Z,1.00
2023-03-07T17:18:13.611Z,1.00
2023-03-07T17:20:41.018Z,1.00
2023-03-07T17:23:08.038Z,1.00
2023-03-07T17:25:35.336Z,1.00
2023-03-07T17:28:10.474Z,1.00
2023-03-07T17:30:37.331Z,1.00
2023-03-07T17:33:04.157Z,1.00
2023-03-07T17:35:31.083Z,1.00
2023-03-07T17:37:57.993Z,1.00
2023-03-07T17:40:24.856Z,1.00
2023-03-07T17:42:54.704Z,1.00
2023-03-07T17:45:22.151Z,1.00
2023-03-07T17:47:54.081Z,1.00
2023-03-07T17:50:25.718Z,1.00
2023-03-07T17:52:54.317Z,1.00
2023-03-07T17:55:25.111Z,1.00
2023-03-07T17:57:52.299Z,1.00
2023-03-07T18:00:20.957Z,1.00
2023-03-07T18:02:48.091Z,1.00
2023-03-07T18:05:14.959Z,1.00
2023-03-07T18:07:42.311Z,1.00
2023-03-07T18:10:10.850Z,1.00
2023-03-07T18:12:39.240Z,1.00
2023-03-07T18:15:13.440Z,1.00
2023-03-07T18:17:47.942Z,1.00
2023-03-07T18:20:20.520Z,1.00
2023-03-07T18:22:48.158Z,1.00
2023-03-07T18:25:16.940Z,1.00
2023-03-07T18:27:44.791Z,1.00
2023-03-07T18:30:12.146Z,1.00
2023-03-07T18:32:39.251Z,1.00
2023-03-07T18:35:06.622Z,1.00
2023-03-07T18:37:33.798Z,1.00
2023-03-07T18:40:00.668Z,1.00
2023-03-07T18:42:27.540Z,1.00
2023-03-07T18:44:54.572Z,1.00
2023-03-07T18:47:21.487Z,1.00
2023-03-07T18:49:52.227Z,1.00
2023-03-07T18:52:19.151Z,1.00
2023-03-07T18:54:47.657Z,1.00
2023-03-07T18:57:14.720Z,1.00
2023-03-07T18:59:41.810Z,1.00
2023-03-07T19:02:10.146Z,1.00
2023-03-07T19:04:37.111Z,1.00
2023-03-07T19:07:04.149Z,1.00
2023-03-07T19:09:31.668Z,1.00
2023-03-07T19:11:58.582Z,1.00
2023-03-07T19:14:26.450Z,1.00
2023-03-07T19:16:53.506Z,1.00
2023-03-07T19:19:20.487Z,1.00
2023-03-07T19:21:47.318Z,1.00
2023-03-07T19:24:17.303Z,1.00
2023-03-07T19:26:44.182Z,1.00
2023-03-07T19:29:12.999Z,1.00
2023-03-07T19:31:43.646Z,1.00
2023-03-07T19:34:11.104Z,1.00
2023-03-07T19:36:41.233Z,1.00
2023-03-07T19:39:09.543Z,1.00
2023-03-07T19:41:37.733Z,1.00
2023-03-07T19:44:06.574Z,1.00
2023-03-07T19:46:33.465Z,1.00
2023-03-07T19:49:00.281Z,1.00
2023-03-07T19:51:27.196Z,1.00
2023-03-07T19:53:57.375Z,1.00
2023-03-07T19:56:29.633Z,1.00
2023-03-07T19:58:58.131Z,1.00
2023-03-07T20:01:26.304Z,1.00
2023-03-07T20:03:54.318Z,1.00
2023-03-07T20:06:26.658Z,1.00
2023-03-07T20:08:55.142Z,1.00
2023-03-07T20:11:30.145Z,1.00
2023-03-07T20:13:58.798Z,1.00
2023-03-07T20:16:29.189Z,1.00
2023-03-07T20:18:58.826Z,1.00
2023-03-07T20:21:28.259Z,1.00
2023-03-07T20:23:59.218Z,1.00
2023-03-07T20:26:39.242Z,1.00
2023-03-07T20:29:07.891Z,1.00
2023-03-07T20:31:36.297Z,1.00
2023-03-07T20:34:03.413Z,1.00
2023-03-07T20:36:32.631Z,1.00
2023-03-07T20:39:02.540Z,1.00
2023-03-07T20:41:31.656Z,1.00
2023-03-07T20:44:03.705Z,1.00
2023-03-07T20:46:32.018Z,1.00
2023-03-07T20:49:00.168Z,1.00
2023-03-07T20:51:32.551Z,1.00
2023-03-07T20:54:01.883Z,1.00
2023-03-07T20:56:30.981Z,1.00
2023-03-07T20:58:57.991Z,1.00
2023-03-07T21:01:27.221Z,1.00
2023-03-07T21:03:55.149Z,1.00
2023-03-07T21:06:22.172Z,1.00
2023-03-07T21:08:49.132Z,1.00
2023-03-07T21:11:20.521Z,1.00
2023-03-07T21:13:49.248Z,1.00
2023-03-07T21:16:21.415Z,1.00
2023-03-07T21:18:48.706Z,1.00
2023-03-07T21:21:20.868Z,1.00
2023-03-07T21:23:48.160Z,1.00
2023-03-07T21:26:18.065Z,1.00
2023-03-07T21:28:45.516Z,1.00
2023-03-07T21:31:12.315Z,1.00
2023-03-07T21:33:43.385Z,1.00
2023-03-07T21:36:13.884Z,1.00
2023-03-07T21:38:42.122Z,1.00
2023-03-07T21:41:09.165Z,1.00
2023-03-07T21:43:36.409Z,1.00
2023-03-07T21:46:05.229Z,1.00
2023-03-07T21:48:32.896Z,1.00
2023-03-07T21:51:00.067Z,1.00
2023-03-07T21:53:26.935Z,1.00
2023-03-07T21:55:56.996Z,1.00
2023-03-07T21:58:24.814Z,1.00
2023-03-07T22:00:52.027Z,1.00
2023-03-07T22:03:19.175Z,1.00
2023-03-07T22:05:46.126Z,1.00
2023-03-07T22:08:13.515Z,1.00
2023-03-07T22:10:40.404Z,1.00
2023-03-07T22:13:07.517Z,1.00
2023-03-07T22:15:34.375Z,1.00
2023-03-07T22:18:01.342Z,1.00
2023-03-07T22:20:28.215Z,1.00
2023-03-07T22:22:55.072Z,1.00
2023-03-07T22:25:21.952Z,1.00
2023-03-07T22:27:48.743Z,1.00
2023-03-07T22:30:15.601Z,1.00
2023-03-07T22:32:45.345Z,1.00
2023-03-07T22:35:12.226Z,1.00
2023-03-07T22:37:39.047Z,1.00
2023-03-07T22:40:06.776Z,1.00
2023-03-07T22:42:33.964Z,1.00
2023-03-07T22:45:00.750Z,1.00
2023-03-07T22:47:29.364Z,1.00
2023-03-07T22:49:56.170Z,1.00
2023-03-07T22:52:23.194Z,1.00
2023-03-07T22:54:49.984Z,1.00
2023-03-07T22:57:16.839Z,1.00
2023-03-07T22:59:43.619Z,1.00
2023-03-07T23:02:10.401Z,1.00
2023-03-07T23:04:37.234Z,1.00
2023-03-07T23:07:04.138Z,1.00
2023-03-07T23:09:30.992Z,1.00
2023-03-07T23:11:58.070Z,1.00
2023-03-07T23:14:24.947Z,1.00
2023-03-07T23:16:51.754Z,1.00
2023-03-07T23:19:18.598Z,1.00
2023-03-07T23:21:45.445Z,1.00
2023-03-07T23:24:12.346Z,1.00
2023-03-07T23:26:39.518Z,1.00
2023-03-07T23:29:09.685Z,1.00
2023-03-07T23:31:38.449Z,1.00
2023-03-07T23:34:09.061Z,1.00
2023-03-07T23:36:35.978Z,1.00
2023-03-07T23:39:03.431Z,1.00
2023-03-07T23:41:30.316Z,1.00
2023-03-07T23:43:59.421Z,1.00
2023-03-07T23:46:27.355Z,1.00
2023-03-07T23:48:54.778Z,1.00
2023-03-07T23:51:22.408Z,1.00
2023-03-07T23:53:49.529Z,1.00
2023-03-07T23:56:16.826Z,1.00
2023-03-07T23:58:44.148Z,1.00
